Station Historical Data
Daily Summary for January 31, 2018 Units:  English    Metric   Both
« Previous Day
Next Day »
Daily Weekly Monthly Yearly Custom
  High: Low: Average:
Temperature: 39.4 °F 5.3 °F 24.4 °F
Dew Point: 27.8 °F 1.0 °F 14.6 °F
Humidity: 83% 44% 67%
Wind Speed: 16.0mph 0.0mph 4.5mph
Wind Gust: 24.0mph - -
Wind- - SSW
Pressure: 30.35 in 29.76 in -
Precipitation: 0.00 in    
Historical Graphs
 
 
Tabular Data for January 31, 2018
Time Temperature Dew Point Pressure Wind Wind Speed Wind Gust Humidity Rainfall Rate (Hourly)
00:04 5.8 °F 1.2 °F 30.35 in Calm     81% 0.00 in
00:09 6.1 °F 1.5 °F 30.34 in WSW 2.0 mph 3.0 mph 81% 0.00 in
00:14 6.5 °F 1.9 °F 30.34 in WSW 2.0 mph 3.0 mph 81% 0.00 in
00:19 7.0 °F 2.4 °F 30.34 in WSW 2.0 mph 4.0 mph 81% 0.00 in
00:24 7.4 °F 2.8 °F 30.35 in WSW 2.0 mph 4.0 mph 81% 0.00 in
00:29 7.6 °F 3.0 °F 30.35 in SW 2.0 mph 4.0 mph 81% 0.00 in
00:34 7.4 °F 2.8 °F 30.34 in SW 2.0 mph 3.0 mph 81% 0.00 in
00:39 7.7 °F 3.1 °F 30.35 in SW 2.0 mph 3.0 mph 81% 0.00 in
00:44 8.1 °F 3.5 °F 30.34 in SW 2.0 mph 3.0 mph 81% 0.00 in
00:49 8.6 °F 4.0 °F 30.34 in SW 2.0 mph 3.0 mph 81% 0.00 in
00:54 8.8 °F 4.2 °F 30.34 in SW 1.0 mph 3.0 mph 81% 0.00 in
00:59 8.8 °F 4.2 °F 30.34 in SW 2.0 mph 3.0 mph 81% 0.00 in
01:04 8.8 °F 4.2 °F 30.34 in Calm   2.0 mph 81% 0.00 in
01:09 8.9 °F 4.3 °F 30.33 in Calm   4.0 mph 81% 0.00 in
01:14 9.1 °F 4.5 °F 30.33 in SW 2.0 mph 2.0 mph 81% 0.00 in
01:19 9.3 °F 4.6 °F 30.34 in Calm   3.0 mph 81% 0.00 in
01:24 9.5 °F 4.8 °F 30.33 in Calm   1.0 mph 81% 0.00 in
01:29 9.7 °F 5.0 °F 30.33 in Calm   1.0 mph 81% 0.00 in
01:34 9.7 °F 5.0 °F 30.33 in SW 1.0 mph 4.0 mph 81% 0.00 in
01:39 9.8 °F 5.1 °F 30.33 in SW 1.0 mph 4.0 mph 81% 0.00 in
01:44 9.7 °F 5.0 °F 30.33 in SW 2.0 mph 4.0 mph 81% 0.00 in
01:49 9.5 °F 4.6 °F 30.33 in SW 1.0 mph 3.0 mph 80% 0.00 in
01:54 9.1 °F 4.2 °F 30.33 in SW 1.0 mph 3.0 mph 80% 0.00 in
01:59 9.0 °F 4.4 °F 30.33 in SW 1.0 mph 3.0 mph 81% 0.00 in
02:04 9.0 °F 4.4 °F 30.33 in Calm     81% 0.00 in
02:09 9.0 °F 4.4 °F 30.33 in Calm     81% 0.00 in
02:14 8.9 °F 4.3 °F 30.33 in Calm     81% 0.00 in
02:19 8.9 °F 4.3 °F 30.34 in Calm     81% 0.00 in
02:24 8.7 °F 4.1 °F 30.34 in Calm     81% 0.00 in
02:29 8.5 °F 3.9 °F 30.33 in Calm     81% 0.00 in
02:34 8.2 °F 3.6 °F 30.34 in Calm     81% 0.00 in
02:39 8.0 °F 3.6 °F 30.33 in Calm     82% 0.00 in
02:44 7.8 °F 3.4 °F 30.33 in Calm     82% 0.00 in
02:49 7.6 °F 3.3 °F 30.33 in Calm     82% 0.00 in
02:54 7.3 °F 3.0 °F 30.33 in Calm     82% 0.00 in
02:59 7.1 °F 2.8 °F 30.33 in Calm   2.0 mph 82% 0.00 in
03:04 7.0 °F 2.7 °F 30.33 in Calm   3.0 mph 82% 0.00 in
03:09 7.1 °F 2.8 °F 30.32 in SW 1.0 mph 3.0 mph 82% 0.00 in
03:14 7.2 °F 2.9 °F 30.32 in SW 1.0 mph 3.0 mph 82% 0.00 in
03:19 7.2 °F 2.9 °F 30.33 in SW 1.0 mph 2.0 mph 82% 0.00 in
03:24 7.1 °F 2.8 °F 30.32 in Calm     82% 0.00 in
03:29 7.4 °F 3.3 °F 30.32 in Calm   2.0 mph 83% 0.00 in
03:34 7.7 °F 3.6 °F 30.32 in Calm     83% 0.00 in
03:39 8.0 °F 3.9 °F 30.32 in Calm     83% 0.00 in
03:44 8.1 °F 4.0 °F 30.31 in Calm     83% 0.00 in
03:49 8.1 °F 3.7 °F 30.30 in SW 1.0 mph 3.0 mph 82% 0.00 in
03:54 7.9 °F 3.5 °F 30.30 in SW 1.0 mph 3.0 mph 82% 0.00 in
03:59 7.7 °F 3.4 °F 30.30 in South 1.0 mph 5.0 mph 82% 0.00 in
04:04 7.5 °F 3.2 °F 30.30 in SSW 2.0 mph 5.0 mph 82% 0.00 in
04:14 7.0 °F 2.7 °F 30.30 in South 2.0 mph 4.0 mph 82% 0.00 in
04:19 6.8 °F 2.5 °F 30.29 in South 1.0 mph 4.0 mph 82% 0.00 in
04:24 6.7 °F 2.4 °F 30.30 in South 1.0 mph 4.0 mph 82% 0.00 in
04:29 6.5 °F 2.2 °F 30.30 in Calm   2.0 mph 82% 0.00 in
04:34 6.1 °F 1.8 °F 30.30 in South 1.0 mph 3.0 mph 82% 0.00 in
04:39 6.0 °F 1.7 °F 30.30 in Calm   5.0 mph 82% 0.00 in
04:44 5.8 °F 1.5 °F 30.30 in South 1.0 mph 5.0 mph 82% 0.00 in
04:49 5.5 °F 1.2 °F 30.30 in Calm     82% 0.00 in
04:54 5.3 °F 1.0 °F 30.30 in Calm     82% 0.00 in
04:59 5.5 °F 1.5 °F 30.30 in Calm     83% 0.00 in
05:04 5.9 °F 1.8 °F 30.29 in Calm     83% 0.00 in
05:09 6.4 °F 2.3 °F 30.29 in Calm     83% 0.00 in
05:14 6.7 °F 2.6 °F 30.29 in Calm     83% 0.00 in
05:19 6.8 °F 2.7 °F 30.29 in Calm     83% 0.00 in
05:24 6.9 °F 2.8 °F 30.29 in Calm     83% 0.00 in
05:29 6.8 °F 2.7 °F 30.29 in Calm   3.0 mph 83% 0.00 in
05:34 6.7 °F 2.6 °F 30.28 in South 2.0 mph 4.0 mph 83% 0.00 in
05:39 6.8 °F 2.7 °F 30.28 in South 2.0 mph 3.0 mph 83% 0.00 in
05:44 6.9 °F 2.8 °F 30.28 in Calm   2.0 mph 83% 0.00 in
05:49 7.2 °F 3.1 °F 30.27 in Calm   3.0 mph 83% 0.00 in
05:54 7.6 °F 3.5 °F 30.26 in South 1.0 mph 3.0 mph 83% 0.00 in
05:59 8.1 °F 4.0 °F 30.26 in South 1.0 mph 3.0 mph 83% 0.00 in
06:04 8.5 °F 4.4 °F 30.25 in South 2.0 mph 3.0 mph 83% 0.00 in
06:09 8.9 °F 4.8 °F 30.25 in South 2.0 mph 3.0 mph 83% 0.00 in
06:14 9.4 °F 5.3 °F 30.26 in Calm   3.0 mph 83% 0.00 in
06:19 10.0 °F 5.9 °F 30.25 in South 1.0 mph 5.0 mph 83% 0.00 in
06:24 10.6 °F 6.2 °F 30.25 in South 2.0 mph 5.0 mph 82% 0.00 in
06:29 10.9 °F 6.5 °F 30.25 in South 3.0 mph 5.0 mph 82% 0.00 in
06:34 11.3 °F 6.9 °F 30.24 in SSE 2.0 mph 4.0 mph 82% 0.00 in
06:39 11.6 °F 6.9 °F 30.24 in SSE 1.0 mph 5.0 mph 81% 0.00 in
06:44 11.9 °F 7.2 °F 30.24 in SSE 2.0 mph 6.0 mph 81% 0.00 in
06:49 12.1 °F 7.1 °F 30.23 in SSE 2.0 mph 5.0 mph 80% 0.00 in
06:54 12.3 °F 7.3 °F 30.23 in Calm   4.0 mph 80% 0.00 in
06:59 12.4 °F 7.4 °F 30.23 in SE 2.0 mph 4.0 mph 80% 0.00 in
07:04 12.6 °F 7.3 °F 30.22 in SE 2.0 mph 5.0 mph 79% 0.00 in
07:09 12.8 °F 7.5 °F 30.22 in SSE 2.0 mph 5.0 mph 79% 0.00 in
07:14 13.0 °F 7.7 °F 30.21 in SSE 2.0 mph 4.0 mph 79% 0.00 in
07:19 13.2 °F 7.9 °F 30.21 in SSE 2.0 mph 5.0 mph 79% 0.00 in
07:24 13.5 °F 8.2 °F 30.20 in SE 2.0 mph 5.0 mph 79% 0.00 in
07:29 13.7 °F 8.4 °F 30.20 in SE 1.0 mph 5.0 mph 79% 0.00 in
07:34 14.1 °F 8.8 °F 30.20 in SSE 1.0 mph 5.0 mph 79% 0.00 in
07:39 14.5 °F 8.9 °F 30.20 in SSE 4.0 mph 6.0 mph 78% 0.00 in
07:44 15.2 °F 9.6 °F 30.19 in South 3.0 mph 7.0 mph 78% 0.00 in
07:49 15.7 °F 9.8 °F 30.19 in SSE 3.0 mph 8.0 mph 77% 0.00 in
07:54 16.0 °F 9.8 °F 30.18 in SSE 3.0 mph 8.0 mph 76% 0.00 in
07:59 16.3 °F 9.8 °F 30.19 in SSE 2.0 mph 9.0 mph 75% 0.00 in
08:04 16.5 °F 10.0 °F 30.19 in South 4.0 mph 7.0 mph 75% 0.00 in
08:09 16.7 °F 9.8 °F 30.18 in South 4.0 mph 10.0 mph 74% 0.00 in
08:14 16.9 °F 10.0 °F 30.18 in South 5.0 mph 10.0 mph 74% 0.00 in
08:19 17.0 °F 9.8 °F 30.18 in South 5.0 mph 10.0 mph 73% 0.00 in
08:24 17.2 °F 10.0 °F 30.18 in South 5.0 mph 10.0 mph 73% 0.00 in
08:29 17.6 °F 10.4 °F 30.18 in South 5.0 mph 10.0 mph 73% 0.00 in
08:34 17.7 °F 10.2 °F 30.17 in South 5.0 mph 10.0 mph 72% 0.00 in
08:39 18.0 °F 10.5 °F 30.17 in South 6.0 mph 12.0 mph 72% 0.00 in
08:44 18.2 °F 10.7 °F 30.17 in SSE 2.0 mph 10.0 mph 72% 0.00 in
08:49 18.4 °F 10.6 °F 30.17 in South 5.0 mph 12.0 mph 71% 0.00 in
08:54 18.7 °F 10.9 °F 30.16 in SSE 6.0 mph 9.0 mph 71% 0.00 in
08:59 19.1 °F 11.2 °F 30.16 in South 6.0 mph 10.0 mph 71% 0.00 in
09:04 19.4 °F 11.5 °F 30.16 in South 5.0 mph 10.0 mph 71% 0.00 in
09:09 19.7 °F 11.8 °F 30.15 in SSE 5.0 mph 9.0 mph 71% 0.00 in
09:14 19.9 °F 11.7 °F 30.14 in South 6.0 mph 11.0 mph 70% 0.00 in
09:19 20.2 °F 12.0 °F 30.14 in South 5.0 mph 12.0 mph 70% 0.00 in
09:24 20.3 °F 12.1 °F 30.14 in South 5.0 mph 12.0 mph 70% 0.00 in
09:29 20.4 °F 12.2 °F 30.13 in South 5.0 mph 10.0 mph 70% 0.00 in
09:34 20.5 °F 11.9 °F 30.13 in South 6.0 mph 10.0 mph 69% 0.00 in
09:39 20.7 °F 12.1 °F 30.12 in South 6.0 mph 12.0 mph 69% 0.00 in
09:44 20.9 °F 12.3 °F 30.11 in South 6.0 mph 12.0 mph 69% 0.00 in
09:49 21.1 °F 12.5 °F 30.11 in South 6.0 mph 12.0 mph 69% 0.00 in
09:54 21.4 °F 12.8 °F 30.10 in South 6.0 mph 12.0 mph 69% 0.00 in
09:59 21.8 °F 13.2 °F 30.09 in South 4.0 mph 11.0 mph 69% 0.00 in
10:04 22.1 °F 13.1 °F 30.09 in SSW 7.0 mph 12.0 mph 68% 0.00 in
10:09 22.2 °F 13.2 °F 30.08 in SSW 9.0 mph 11.0 mph 68% 0.00 in
10:14 22.5 °F 13.5 °F 30.07 in SSE 11.0 mph 15.0 mph 68% 0.00 in
10:19 22.6 °F 13.3 °F 30.06 in South 4.0 mph 18.0 mph 67% 0.00 in
10:24 22.7 °F 13.4 °F 30.06 in South 8.0 mph 18.0 mph 67% 0.00 in
10:29 22.8 °F 13.5 °F 30.05 in South 7.0 mph 15.0 mph 67% 0.00 in
10:34 23.1 °F 13.4 °F 30.05 in South 7.0 mph 15.0 mph 66% 0.00 in
10:39 23.4 °F 13.7 °F 30.04 in South 8.0 mph 14.0 mph 66% 0.00 in
10:44 23.6 °F 13.9 °F 30.05 in South 7.0 mph 14.0 mph 66% 0.00 in
10:49 23.8 °F 14.4 °F 30.05 in South 6.0 mph 12.0 mph 67% 0.00 in
10:54 23.9 °F 15.2 °F 30.05 in SW 7.0 mph 14.0 mph 69% 0.00 in
10:59 23.8 °F 16.1 °F 30.04 in South 8.0 mph 12.0 mph 72% 0.00 in
11:04 23.6 °F 16.5 °F 30.03 in SSW 7.0 mph 12.0 mph 74% 0.00 in
11:09 23.6 °F 17.1 °F 30.04 in SW 4.0 mph 14.0 mph 76% 0.00 in
11:14 23.6 °F 17.7 °F 30.04 in South 7.0 mph 12.0 mph 78% 0.00 in
11:19 23.5 °F 17.9 °F 30.03 in South 3.0 mph 13.0 mph 79% 0.00 in
11:24 23.6 °F 18.3 °F 30.02 in South 7.0 mph 8.0 mph 80% 0.00 in
11:29 23.7 °F 18.4 °F 30.02 in South 5.0 mph 9.0 mph 80% 0.00 in
11:34 24.0 °F 19.0 °F 30.01 in South 5.0 mph 9.0 mph 81% 0.00 in
11:39 24.2 °F 19.2 °F 30.00 in South 5.0 mph 9.0 mph 81% 0.00 in
11:44 24.2 °F 18.9 °F 30.00 in South 5.0 mph 11.0 mph 80% 0.00 in
11:49 24.5 °F 19.2 °F 29.99 in South 6.0 mph 12.0 mph 80% 0.00 in
11:54 24.6 °F 19.0 °F 29.98 in South 5.0 mph 9.0 mph 79% 0.00 in
11:59 24.8 °F 19.2 °F 29.97 in South 6.0 mph 12.0 mph 79% 0.00 in
12:04 25.1 °F 19.2 °F 29.97 in SSE 5.0 mph 12.0 mph 78% 0.00 in
12:09 25.3 °F 19.4 °F 29.95 in SE 8.0 mph 9.0 mph 78% 0.00 in
12:14 25.8 °F 19.6 °F 29.94 in SSW 4.0 mph 10.0 mph 77% 0.00 in
12:19 26.3 °F 19.8 °F 29.94 in South 7.0 mph 13.0 mph 76% 0.00 in
12:24 26.7 °F 19.8 °F 29.93 in South 11.0 mph 12.0 mph 75% 0.00 in
12:29 27.1 °F 19.9 °F 29.92 in SSE 4.0 mph 9.0 mph 74% 0.00 in
12:34 27.6 °F 20.4 °F 29.92 in South 4.0 mph 11.0 mph 74% 0.00 in
12:39 28.0 °F 20.5 °F 29.91 in South 4.0 mph 9.0 mph 73% 0.00 in
12:44 28.5 °F 20.6 °F 29.90 in South 6.0 mph 7.0 mph 72% 0.00 in
12:49 29.0 °F 20.8 °F 29.90 in South 4.0 mph 9.0 mph 71% 0.00 in
12:54 29.4 °F 21.2 °F 29.89 in South 4.0 mph 8.0 mph 71% 0.00 in
12:59 29.5 °F 20.9 °F 29.88 in South 6.0 mph 7.0 mph 70% 0.00 in
13:04 29.7 °F 20.8 °F 29.87 in South 5.0 mph 9.0 mph 69% 0.00 in
13:09 30.1 °F 20.8 °F 29.86 in SSE 3.0 mph 8.0 mph 68% 0.00 in
13:14 30.3 °F 20.6 °F 29.86 in South 5.0 mph 11.0 mph 67% 0.00 in
13:19 30.7 °F 21.0 °F 29.85 in SSE 7.0 mph 12.0 mph 67% 0.00 in
13:24 31.2 °F 20.8 °F 29.84 in SSW 2.0 mph 12.0 mph 65% 0.00 in
13:29 31.6 °F 20.4 °F 29.83 in SSE 5.0 mph 11.0 mph 63% 0.00 in
13:34 31.9 °F 20.3 °F 29.83 in South 6.0 mph 13.0 mph 62% 0.00 in
13:39 32.2 °F 20.6 °F 29.83 in South 5.0 mph 13.0 mph 62% 0.00 in
13:44 32.7 °F 21.1 °F 29.83 in South 4.0 mph 14.0 mph 62% 0.00 in
13:49 33.4 °F 20.6 °F 29.82 in South 5.0 mph 14.0 mph 59% 0.00 in
13:54 33.7 °F 20.5 °F 29.81 in SSW 6.0 mph 12.0 mph 58% 0.00 in
13:59 33.8 °F 19.7 °F 29.81 in SSW 5.0 mph 10.0 mph 56% 0.00 in
14:04 34.1 °F 20.0 °F 29.80 in SSW 6.0 mph 9.0 mph 56% 0.00 in
14:09 34.6 °F 19.6 °F 29.80 in SW 7.0 mph 16.0 mph 54% 0.00 in
14:14 34.6 °F 19.2 °F 29.80 in South 6.0 mph 15.0 mph 53% 0.00 in
14:19 34.6 °F 19.6 °F 29.79 in SW 3.0 mph 14.0 mph 54% 0.00 in
14:24 34.6 °F 20.1 °F 29.78 in SW 6.0 mph 11.0 mph 55% 0.00 in
14:29 34.6 °F 19.6 °F 29.78 in WSW 12.0 mph 12.0 mph 54% 0.00 in
14:34 34.6 °F 19.2 °F 29.78 in SSE 6.0 mph 17.0 mph 53% 0.01 in
14:39 34.7 °F 18.9 °F 29.78 in South 5.0 mph 16.0 mph 52% 0.01 in
14:44 34.9 °F 19.0 °F 29.78 in SSW 6.0 mph 16.0 mph 52% 0.02 in
14:49 34.9 °F 19.0 °F 29.77 in SSW 6.0 mph 11.0 mph 52% 0.02 in
14:54 34.9 °F 18.6 °F 29.76 in SW 6.0 mph 13.0 mph 51% 0.02 in
14:59 35.0 °F 18.2 °F 29.77 in SSW 7.0 mph 14.0 mph 50% 0.02 in
15:04 35.1 °F 17.8 °F 29.77 in SW 8.0 mph 16.0 mph 49% 0.02 in
15:09 35.4 °F 17.1 °F 29.76 in SW 8.0 mph 16.0 mph 47% 0.02 in
15:14 35.6 °F 16.8 °F 29.76 in South 7.0 mph 15.0 mph 46% 0.02 in
15:19 36.1 °F 17.3 °F 29.77 in South 6.0 mph 12.0 mph 46% 0.03 in
15:24 36.6 °F 17.7 °F 29.77 in SSW 7.0 mph 17.0 mph 46% 0.03 in
15:29 36.7 °F 16.8 °F 29.76 in SW 9.0 mph 16.0 mph 44% 0.03 in
15:34 36.8 °F 17.4 °F 29.76 in South 8.0 mph 16.0 mph 45% 0.02 in
15:39 36.9 °F 17.0 °F 29.76 in SSW 9.0 mph 17.0 mph 44% 0.02 in
15:44 36.9 °F 17.0 °F 29.77 in SW 9.0 mph 24.0 mph 44% 0.02 in
15:49 36.6 °F 16.7 °F 29.76 in SSW 8.0 mph 24.0 mph 44% 0.02 in
15:54 36.4 °F 16.5 °F 29.76 in WSW 8.0 mph 21.0 mph 44% 0.02 in
16:04 36.1 °F 17.3 °F 29.76 in SSW 8.0 mph 17.0 mph 46% 0.03 in
16:09 35.8 °F 16.5 °F 29.76 in SSW 8.0 mph 15.0 mph 45% 0.03 in
16:14 35.6 °F 16.3 °F 29.76 in SSW 9.0 mph 16.0 mph 45% 0.03 in
16:19 35.7 °F 16.9 °F 29.76 in SSW 8.0 mph 16.0 mph 46% 0.02 in
16:24 35.6 °F 16.8 °F 29.76 in SSW 7.0 mph 16.0 mph 46% 0.02 in
16:29 35.6 °F 16.8 °F 29.76 in SSW 7.0 mph 16.0 mph 46% 0.02 in
16:34 35.5 °F 17.2 °F 29.76 in South 6.0 mph 16.0 mph 47% 0.02 in
16:39 35.4 °F 17.1 °F 29.77 in SW 6.0 mph 14.0 mph 47% 0.02 in
16:44 35.5 °F 17.7 °F 29.77 in SW 10.0 mph 13.0 mph 48% 0.01 in
16:49 35.5 °F 18.2 °F 29.77 in SSW 4.0 mph 13.0 mph 49% 0.01 in
16:54 35.7 °F 18.4 °F 29.77 in SW 6.0 mph 13.0 mph 49% 0.01 in
16:59 35.8 °F 18.5 °F 29.77 in SW 7.0 mph 13.0 mph 49% 0.01 in
17:04 35.9 °F 19.0 °F 29.77 in SW 6.0 mph 11.0 mph 50% 0.00 in
17:09 36.0 °F 19.6 °F 29.77 in SSW 6.0 mph 12.0 mph 51% 0.00 in
17:14 36.1 °F 19.2 °F 29.76 in SSW 7.0 mph 15.0 mph 50% 0.00 in
17:19 36.1 °F 19.7 °F 29.76 in SSW 7.0 mph 16.0 mph 51% 0.00 in
17:24 36.0 °F 19.6 °F 29.76 in South 8.0 mph 12.0 mph 51% 0.00 in
17:29 36.1 °F 19.7 °F 29.76 in SSW 7.0 mph 17.0 mph 51% 0.00 in
17:34 36.1 °F 19.2 °F 29.76 in SW 7.0 mph 19.0 mph 50% 0.00 in
17:39 36.1 °F 19.7 °F 29.76 in SW 7.0 mph 13.0 mph 51% 0.00 in
17:44 36.2 °F 19.3 °F 29.76 in SW 5.0 mph 14.0 mph 50% 0.00 in
17:49 36.3 °F 19.9 °F 29.77 in South 4.0 mph 15.0 mph 51% 0.00 in
17:54 36.2 °F 19.8 °F 29.77 in SSW 2.0 mph 12.0 mph 51% 0.00 in
17:59 36.1 °F 19.7 °F 29.77 in SSW 5.0 mph 14.0 mph 51% 0.00 in
18:04 36.0 °F 19.6 °F 29.77 in SSW 5.0 mph 14.0 mph 51% 0.00 in
18:09 36.0 °F 19.6 °F 29.77 in SSW 6.0 mph 15.0 mph 51% 0.00 in
18:14 36.0 °F 19.6 °F 29.77 in SSW 6.0 mph 15.0 mph 51% 0.00 in
18:19 36.1 °F 19.7 °F 29.77 in SSW 7.0 mph 13.0 mph 51% 0.00 in
18:24 36.0 °F 20.1 °F 29.77 in SW 4.0 mph 12.0 mph 52% 0.00 in
18:29 36.0 °F 20.5 °F 29.77 in SW 9.0 mph 11.0 mph 53% 0.00 in
18:34 36.0 °F 20.5 °F 29.78 in South 6.0 mph 11.0 mph 53% 0.00 in
18:39 36.1 °F 20.6 °F 29.78 in SSW 6.0 mph 15.0 mph 53% 0.00 in
18:44 36.1 °F 21.0 °F 29.78 in SSW 7.0 mph 15.0 mph 54% 0.00 in
18:49 36.2 °F 21.1 °F 29.78 in SW 7.0 mph 10.0 mph 54% 0.00 in
18:54 36.2 °F 21.6 °F 29.78 in SW 6.0 mph 10.0 mph 55% 0.00 in
18:59 36.2 °F 21.6 °F 29.78 in SSW 4.0 mph 11.0 mph 55% 0.00 in
19:04 36.2 °F 22.0 °F 29.78 in SSW 3.0 mph 12.0 mph 56% 0.00 in
19:09 36.3 °F 22.1 °F 29.78 in SSW 4.0 mph 12.0 mph 56% 0.00 in
19:14 36.4 °F 22.2 °F 29.78 in SW 6.0 mph 15.0 mph 56% 0.00 in
19:19 36.6 °F 22.8 °F 29.78 in SSW 6.0 mph 15.0 mph 57% 0.00 in
19:24 36.7 °F 22.9 °F 29.78 in SSW 6.0 mph 12.0 mph 57% 0.00 in
19:29 36.9 °F 23.1 °F 29.78 in SW 5.0 mph 12.0 mph 57% 0.00 in
19:34 37.0 °F 23.6 °F 29.78 in South 6.0 mph 15.0 mph 58% 0.00 in
19:39 37.2 °F 23.8 °F 29.78 in SSW 7.0 mph 11.0 mph 58% 0.00 in
19:44 37.4 °F 24.0 °F 29.78 in SW 6.0 mph 15.0 mph 58% 0.00 in
19:49 37.5 °F 24.1 °F 29.78 in SSW 8.0 mph 11.0 mph 58% 0.00 in
19:54 37.7 °F 23.8 °F 29.78 in South 7.0 mph 16.0 mph 57% 0.00 in
19:59 37.8 °F 23.9 °F 29.79 in SSW 4.0 mph 16.0 mph 57% 0.00 in
20:04 38.0 °F 24.1 °F 29.78 in South 6.0 mph 14.0 mph 57% 0.00 in
20:09 37.9 °F 24.0 °F 29.78 in SW 10.0 mph 14.0 mph 57% 0.00 in
20:14 37.9 °F 24.4 °F 29.78 in South 6.0 mph 14.0 mph 58% 0.01 in
20:19 37.9 °F 24.4 °F 29.78 in SSW 6.0 mph 14.0 mph 58% 0.01 in
20:24 38.0 °F 24.1 °F 29.78 in SSW 6.0 mph 15.0 mph 57% 0.01 in
20:29 38.0 °F 24.1 °F 29.79 in SSW 7.0 mph 15.0 mph 57% 0.01 in
20:34 38.1 °F 24.2 °F 29.79 in SW 8.0 mph 15.0 mph 57% 0.01 in
20:39 38.1 °F 24.2 °F 29.79 in SW 7.0 mph 15.0 mph 57% 0.01 in
20:44 38.0 °F 24.5 °F 29.79 in SW 6.0 mph 12.0 mph 58% 0.01 in
20:49 38.0 °F 24.5 °F 29.79 in SSW 7.0 mph 15.0 mph 58% 0.01 in
20:54 38.1 °F 24.6 °F 29.79 in South 8.0 mph 12.0 mph 58% 0.01 in
20:59 38.2 °F 24.7 °F 29.79 in WSW 12.0 mph 12.0 mph 58% 0.01 in
21:04 38.3 °F 24.8 °F 29.79 in SW 5.0 mph 14.0 mph 58% 0.01 in
21:09 38.2 °F 24.7 °F 29.79 in SW 4.0 mph 16.0 mph 58% 0.01 in
21:14 38.3 °F 24.4 °F 29.79 in South 6.0 mph 11.0 mph 57% 0.00 in
21:19 38.3 °F 24.8 °F 29.79 in South 8.0 mph 10.0 mph 58% 0.00 in
21:24 38.3 °F 24.8 °F 29.80 in SW 6.0 mph 11.0 mph 58% 0.00 in
21:29 38.2 °F 24.3 °F 29.79 in SW 6.0 mph 11.0 mph 57% 0.00 in
21:34 38.2 °F 24.7 °F 29.79 in SSW 5.0 mph 11.0 mph 58% 0.00 in
21:39 38.2 °F 24.7 °F 29.79 in SW 6.0 mph 15.0 mph 58% 0.00 in
21:44 38.4 °F 24.9 °F 29.79 in SW 7.0 mph 15.0 mph 58% 0.00 in
21:49 38.5 °F 25.0 °F 29.79 in SW 7.0 mph 16.0 mph 58% 0.00 in
21:54 38.8 °F 25.3 °F 29.79 in WSW 9.0 mph 14.0 mph 58% 0.00 in
21:59 38.8 °F 25.7 °F 29.80 in SSW 5.0 mph 15.0 mph 59% 0.00 in
22:04 38.9 °F 25.4 °F 29.80 in SSW 5.0 mph 12.0 mph 58% 0.00 in
22:09 39.0 °F 25.5 °F 29.79 in South 8.0 mph 16.0 mph 58% 0.00 in
22:14 39.0 °F 25.5 °F 29.79 in SW 7.0 mph 15.0 mph 58% 0.00 in
22:19 39.0 °F 25.5 °F 29.79 in SSE 9.0 mph 13.0 mph 58% 0.00 in
22:24 39.0 °F 25.9 °F 29.79 in SW 4.0 mph 13.0 mph 59% 0.00 in
22:29 39.0 °F 25.9 °F 29.79 in SW 6.0 mph 13.0 mph 59% 0.00 in
22:34 39.0 °F 25.9 °F 29.79 in SW 6.0 mph 14.0 mph 59% 0.00 in
22:39 39.0 °F 26.3 °F 29.79 in SW 6.0 mph 14.0 mph 60% 0.00 in
22:44 39.1 °F 26.4 °F 29.79 in SW 6.0 mph 16.0 mph 60% 0.00 in
22:49 39.3 °F 26.6 °F 29.78 in WSW 2.0 mph 14.0 mph 60% 0.00 in
22:54 39.3 °F 26.6 °F 29.78 in South 4.0 mph 14.0 mph 60% 0.00 in
22:59 39.3 °F 26.6 °F 29.78 in SW 7.0 mph 14.0 mph 60% 0.00 in
23:04 39.3 °F 26.6 °F 29.78 in SW 8.0 mph 16.0 mph 60% 0.00 in
23:09 39.3 °F 26.6 °F 29.78 in SW 16.0 mph 16.0 mph 60% 0.00 in
23:14 39.3 °F 27.0 °F 29.78 in WSW 6.0 mph 16.0 mph 61% 0.00 in
23:19 39.3 °F 27.0 °F 29.78 in West 8.0 mph 14.0 mph 61% 0.01 in
23:24 39.2 °F 26.9 °F 29.78 in SW 5.0 mph 15.0 mph 61% 0.01 in
23:29 39.3 °F 27.0 °F 29.78 in SSW 4.0 mph 13.0 mph 61% 0.01 in
23:34 39.2 °F 26.9 °F 29.79 in SW 7.0 mph 13.0 mph 61% 0.01 in
23:39 39.2 °F 26.9 °F 29.79 in WSW 7.0 mph 17.0 mph 61% 0.01 in
23:44 39.3 °F 27.0 °F 29.79 in WSW 7.0 mph 17.0 mph 61% 0.01 in
23:49 39.3 °F 27.4 °F 29.79 in SSW 7.0 mph 14.0 mph 62% 0.01 in
23:54 39.4 °F 27.5 °F 29.79 in SW 14.0 mph 16.0 mph 62% 0.01 in
23:59 39.4 °F 27.8 °F 29.79 in WSW 8.0 mph 16.0 mph 63% 0.01 in
Buffalo, New York, USA
Compliments of Weather Underground - 2.5 mb